Terminal Aerodrome Forecast
Issued by NWS Jackson, MS

Home | Current Version | Previous Version | Text Only | Print | Product List | Glossary On
Versions: 1 2 3 4 5 6 7 8 9 10 11 12 13
000
FTUS44 KJAN 242348 RRA
TAFHBG
TAF
KHBG 242348Z 2500/2524 16006KT 6SM -TSRA BKN020 OVC050CB
     FM250100 VRB04KT P6SM VCTS BKN050CB BKN250
     FM250300 00000KT P6SM FEW090 SCT130
     FM251100 00000KT 5SM BR BKN050 BKN250
     FM251300 00000KT P6SM FEW050 SCT250
     FM251500 VRB03KT P6SM VCTS FEW090CB SCT130
     FM251900 25004KT 6SM SHRA VCTS BKN090CB
     FM252100 18004KT P6SM VCTS BKN090CB=

USA.gov is the U.S. government's official web portal to all federal, state and local government web resources and services.